Pleasant Hill, Missouri
Current Conditions -  °F | °C
As of 3:06 AM on Friday 24 Oct 2014 (Local Time) from KLXT Reporting Station
Haze Haze  
Wind Chill: 13°   Ceiling: 200
Heat Index: 13°   Visibility: 0.75mi
Dew Point: 13°   Wind: 10mph
Humidity: 100%   Direction: 220°SW
Pressure: 30.09"   Gusts: NA
Location:  38.79°N, 94.27°W
Report Text: KLXT 240806Z AUTO 22009KT 3/4SM BR VV002 13/13 A3009 RMK AO2 T01330133
Loading
Personal Weather Stations






























Interactive Weather Map
Tropical Storm Tracking
New forecast layout! Learn more

10-Day Weather Forecast

Advertisements
Track Severe Weather on mobile